Time;durP1;ratioP1;P1;durP2;ratioP2;P2;SDS_P1;SDS_P2;PMS_P1;PMS_P2;Temp;Humidity;BMP_temperature;BMP_pressure;BME280_temperature;BME280_humidity;BME280_pressure;Samples;Min_cycle;Max_cycle;Signal;HPM_P1;HPM_P2
2021/08/10 00:02:23;;;;;;;8.68;5.32;;;14.90;99.90;;;;;;4968937;28;20500;-76
2021/08/10 00:04:50;;;;;;;6.65;5.80;;;14.90;99.90;;;;;;4960889;28;20037;-76
2021/08/10 00:07:16;;;;;;;6.80;4.53;;;14.90;99.90;;;;;;4971278;28;20179;-76
2021/08/10 00:09:41;;;;;;;3.85;3.55;;;15.00;99.90;;;;;;4958341;28;20485;-77
2021/08/10 00:12:08;;;;;;;4.25;3.60;;;15.10;99.90;;;;;;4950670;28;20394;-76
2021/08/10 00:14:34;;;;;;;4.10;3.70;;;15.10;99.90;;;;;;4950950;29;20078;-76
2021/08/10 00:16:59;;;;;;;5.68;5.10;;;15.20;99.90;;;;;;4966819;28;20031;-76
2021/08/10 00:19:25;;;;;;;4.63;4.18;;;15.30;99.90;;;;;;4952300;28;20026;-77
2021/08/10 00:21:51;;;;;;;5.85;4.05;;;15.20;99.90;;;;;;4965203;28;20453;-76
2021/08/10 00:24:16;;;;;;;8.05;3.30;;;15.20;99.90;;;;;;4970059;28;20027;-76
2021/08/10 00:26:42;;;;;;;5.65;4.25;;;15.10;99.90;;;;;;4986164;28;20035;-76
2021/08/10 00:29:08;;;;;;;5.72;4.10;;;15.10;99.90;;;;;;4971463;28;20456;-77
2021/08/10 00:31:33;;;;;;;3.47;3.17;;;15.10;99.90;;;;;;4971222;28;20027;-77
2021/08/10 00:33:59;;;;;;;6.03;3.40;;;15.10;99.90;;;;;;4969239;28;20023;-78
2021/08/10 00:36:24;;;;;;;6.03;3.80;;;15.10;99.90;;;;;;4969786;28;20462;-76
2021/08/10 00:38:50;;;;;;;7.32;3.95;;;15.10;99.90;;;;;;4971220;28;20481;-76
2021/08/10 00:41:16;;;;;;;5.07;4.18;;;15.10;99.90;;;;;;4971077;28;20030;-76
2021/08/10 00:43:43;;;;;;;8.48;3.60;;;15.20;99.90;;;;;;4971194;28;20026;-76
2021/08/10 00:46:11;;;;;;;6.85;3.97;;;15.30;99.90;;;;;;4971209;28;20027;-77
2021/08/10 00:48:37;;;;;;;6.28;4.03;;;15.30;99.90;;;;;;4969821;28;20066;-76
2021/08/10 00:51:05;;;;;;;5.65;4.35;;;15.40;99.90;;;;;;4971226;28;20031;-77
2021/08/10 00:53:31;;;;;;;5.90;5.03;;;15.40;99.90;;;;;;4970959;28;20050;-76
2021/08/10 00:55:57;;;;;;;7.28;4.35;;;15.40;99.90;;;;;;4971130;28;20482;-76
2021/08/10 00:58:23;;;;;;;6.25;4.07;;;15.50;99.90;;;;;;4972995;28;20030;-76
2021/08/10 01:00:49;;;;;;;5.57;4.28;;;15.50;99.90;;;;;;4974606;28;20114;-76
2021/08/10 01:03:14;;;;;;;5.18;4.00;;;15.60;99.90;;;;;;4974144;28;20097;-76
2021/08/10 01:05:45;;;;;;;5.55;4.93;;;15.60;99.90;;;;;;4973396;28;20374;-77
2021/08/10 01:08:20;;;;;;;10.77;4.18;;;15.50;99.90;;;;;;4974135;28;20500;-76
2021/08/10 01:11:15;;;;;;;4.80;3.63;;;15.50;99.90;;;;;;4974477;28;20031;-77
2021/08/10 01:13:52;;;;;;;6.90;2.90;;;15.50;99.90;;;;;;4981103;28;20039;-77
2021/08/10 01:16:38;;;;;;;3.03;2.83;;;15.40;99.90;;;;;;4974148;28;20747;-76
2021/08/10 01:19:19;;;;;;;5.00;3.03;;;15.40;99.90;;;;;;4973079;28;20030;-77
2021/08/10 01:21:50;;;;;;;2.88;2.58;;;15.40;99.90;;;;;;4974220;28;20051;-76
2021/08/10 01:24:21;;;;;;;4.40;2.83;;;15.40;99.90;;;;;;4972835;28;20118;-76
2021/08/10 01:26:59;;;;;;;3.50;3.20;;;15.30;99.90;;;;;;4972879;28;20031;-76
2021/08/10 01:30:00;;;;;;;3.50;3.10;;;15.40;99.90;;;;;;4972883;28;20034;-76
2021/08/10 01:32:28;;;;;;;3.65;3.35;;;15.40;99.90;;;;;;5017372;28;20037;-77
2021/08/10 01:34:55;;;;;;;6.80;4.30;;;15.50;99.90;;;;;;4997029;28;20030;-76
2021/08/10 01:37:24;;;;;;;6.97;5.95;;;15.50;99.90;;;;;;4973816;28;20405;-77
2021/08/10 01:39:55;;;;;;;7.82;5.60;;;15.40;99.90;;;;;;4972707;28;20034;-77
2021/08/10 01:42:23;;;;;;;10.02;4.78;;;15.50;99.90;;;;;;4972573;28;20073;-76
2021/08/10 01:44:50;;;;;;;6.32;4.57;;;15.50;99.90;;;;;;4972689;28;20377;-76
2021/08/10 01:47:15;;;;;;;8.73;5.90;;;15.40;99.90;;;;;;4972332;28;20062;-77
2021/08/10 01:49:42;;;;;;;9.95;6.07;;;15.40;99.90;;;;;;4972607;28;20111;-77
2021/08/10 01:52:18;;;;;;;5.75;5.00;;;15.50;99.90;;;;;;4973545;28;20033;-76
2021/08/10 01:54:46;;;;;;;8.32;5.70;;;15.60;99.90;;;;;;4972788;28;20076;-77
2021/08/10 01:57:12;;;;;;;8.50;5.63;;;15.70;99.90;;;;;;4972080;28;20039;-76
2021/08/10 01:59:39;;;;;;;4.47;3.88;;;15.80;99.90;;;;;;4972391;28;20056;-76
2021/08/10 02:02:08;;;;;;;3.92;3.63;;;15.90;99.90;;;;;;4988339;28;20430;-77
2021/08/10 02:04:34;;;;;;;3.70;3.40;;;15.80;99.90;;;;;;4973581;28;20089;-77
2021/08/10 02:07:01;;;;;;;3.88;3.42;;;15.70;99.90;;;;;;4972887;28;20492;-77
2021/08/10 02:09:28;;;;;;;5.28;3.75;;;15.70;99.90;;;;;;4972025;28;20034;-77
2021/08/10 02:11:55;;;;;;;6.35;4.68;;;15.60;99.90;;;;;;4973291;28;20102;-76
2021/08/10 02:14:24;;;;;;;5.53;3.80;;;15.60;99.90;;;;;;4972158;28;20118;-76
2021/08/10 02:16:51;;;;;;;7.53;4.00;;;15.50;99.90;;;;;;4973057;28;20031;-76
2021/08/10 02:19:17;;;;;;;4.53;4.13;;;15.40;99.90;;;;;;4972084;28;20358;-76
2021/08/10 02:21:46;;;;;;;5.10;3.53;;;15.30;99.90;;;;;;4973224;28;20027;-76
2021/08/10 02:24:46;;;;;;;6.18;4.25;;;15.30;99.90;;;;;;4972004;28;20026;-77
2021/08/10 02:27:19;;;;;;;5.22;3.85;;;15.30;99.90;;;;;;4999159;28;20051;-76
2021/08/10 02:29:48;;;;;;;5.25;4.00;;;15.30;99.90;;;;;;4973411;28;20027;-76
2021/08/10 02:32:21;;;;;;;7.80;4.60;;;15.40;99.90;;;;;;4972864;28;20576;-76
2021/08/10 02:34:47;;;;;;;8.93;5.53;;;15.40;99.90;;;;;;4973310;28;20058;-76
2021/08/10 02:37:15;;;;;;;4.93;4.38;;;15.40;99.90;;;;;;4972847;28;20023;-76
2021/08/10 02:39:42;;;;;;;4.35;3.92;;;15.40;99.90;;;;;;4971762;28;20047;-76
2021/08/10 02:42:10;;;;;;;6.60;3.78;;;15.40;99.90;;;;;;4971564;28;20027;-76
2021/08/10 02:44:39;;;;;;;4.07;3.75;;;15.30;99.90;;;;;;4971800;28;20023;-77
2021/08/10 02:47:04;;;;;;;3.92;3.63;;;15.30;99.90;;;;;;4971464;28;20034;-77
2021/08/10 02:49:30;;;;;;;7.00;4.03;;;15.30;99.90;;;;;;4971615;28;20035;-76
2021/08/10 02:51:55;;;;;;;7.18;4.65;;;15.30;99.90;;;;;;4971495;28;20019;-76
2021/08/10 02:54:21;;;;;;;8.63;5.72;;;15.30;99.90;;;;;;4971306;28;20031;-76
2021/08/10 02:57:02;;;;;;;9.50;7.43;;;15.30;99.90;;;;;;4972073;28;20023;-77
2021/08/10 03:00:11;;;;;;;6.63;5.85;;;15.30;99.90;;;;;;4953260;28;20028;-76
2021/08/10 03:02:48;;;;;;;6.93;5.63;;;15.30;99.90;;;;;;4952095;28;20031;-76
2021/08/10 03:05:21;;;;;;;9.57;6.70;;;15.30;99.90;;;;;;4953292;28;20033;-76
2021/08/10 03:08:00;;;;;;;7.38;6.47;;;15.40;99.90;;;;;;4953113;28;20043;-76
2021/08/10 03:10:31;;;;;;;8.50;6.32;;;15.40;99.90;;;;;;4952061;29;20023;-76
2021/08/10 03:13:04;;;;;;;9.02;6.15;;;15.30;99.90;;;;;;4951994;28;20023;-76
2021/08/10 03:15:32;;;;;;;7.07;5.47;;;15.30;99.90;;;;;;4951881;29;20059;-76
2021/08/10 03:18:03;;;;;;;6.43;5.72;;;15.30;99.90;;;;;;4951882;28;20381;-76
2021/08/10 03:20:31;;;;;;;8.65;6.30;;;15.30;99.90;;;;;;4952132;28;20031;-77
2021/08/10 03:22:58;;;;;;;9.75;6.30;;;15.20;99.90;;;;;;4956948;28;20026;-76
2021/08/10 03:25:26;;;;;;;7.10;5.80;;;15.30;99.90;;;;;;4971899;28;20023;-76
2021/08/10 03:27:52;;;;;;;6.38;5.82;;;15.30;99.90;;;;;;4970860;28;20442;-76
2021/08/10 03:30:18;;;;;;;8.00;5.78;;;15.30;99.90;;;;;;4970964;28;20550;-77
2021/08/10 03:32:46;;;;;;;6.47;5.82;;;15.30;99.90;;;;;;4971509;28;20031;-77
2021/08/10 03:35:12;;;;;;;5.85;5.28;;;15.40;99.90;;;;;;4971987;28;20060;-76
2021/08/10 03:37:39;;;;;;;9.23;6.20;;;15.40;99.90;;;;;;4971635;28;20106;-77
2021/08/10 03:40:06;;;;;;;8.05;6.38;;;15.40;99.90;;;;;;4971026;28;20043;-76
2021/08/10 03:42:33;;;;;;;7.03;6.30;;;15.40;99.90;;;;;;4971881;28;20031;-76
2021/08/10 03:44:59;;;;;;;10.75;6.85;;;15.40;99.90;;;;;;5050566;28;20388;-77
2021/08/10 03:47:25;;;;;;;8.63;6.90;;;15.40;99.90;;;;;;4971210;28;20084;-76
2021/08/10 03:49:54;;;;;;;8.90;6.70;;;15.40;99.90;;;;;;4970824;28;20030;-76
2021/08/10 03:52:20;;;;;;;9.43;7.53;;;15.40;99.90;;;;;;4971698;28;20132;-76
2021/08/10 03:54:46;;;;;;;8.85;6.82;;;15.50;99.90;;;;;;4970744;28;20053;-76
2021/08/10 03:57:17;;;;;;;8.15;6.22;;;15.50;99.90;;;;;;4971633;28;20038;-77
2021/08/10 03:59:45;;;;;;;7.85;7.13;;;15.50;99.90;;;;;;4969926;28;20038;-77
2021/08/10 04:02:16;;;;;;;10.63;6.90;;;15.50;99.90;;;;;;4970342;28;20027;-77
2021/08/10 04:04:44;;;;;;;12.07;6.90;;;15.50;99.90;;;;;;4971744;28;20101;-77
2021/08/10 04:07:09;;;;;;;7.30;6.15;;;15.60;99.90;;;;;;4970072;28;20030;-76
2021/08/10 04:09:37;;;;;;;9.30;6.43;;;15.60;99.90;;;;;;4971494;28;20579;-77
2021/08/10 04:12:08;;;;;;;10.57;6.85;;;15.60;99.90;;;;;;4986594;28;20464;-76
2021/08/10 04:14:34;;;;;;;8.65;6.53;;;15.70;99.90;;;;;;4967848;28;20063;-77
2021/08/10 04:17:04;;;;;;;9.55;5.93;;;15.70;99.90;;;;;;4952417;28;20546;-77
2021/08/10 04:19:32;;;;;;;6.80;6.20;;;15.80;99.90;;;;;;4950273;28;20034;-77
2021/08/10 04:21:58;;;;;;;6.93;6.00;;;15.80;99.90;;;;;;4951067;28;20421;-76
2021/08/10 04:24:24;;;;;;;7.60;6.20;;;15.80;99.90;;;;;;4967050;28;20100;-77
2021/08/10 04:26:50;;;;;;;7.22;5.47;;;15.90;99.90;;;;;;4963086;28;20042;-76
2021/08/10 04:29:16;;;;;;;6.97;5.93;;;15.90;99.90;;;;;;4970177;28;20392;-76
2021/08/10 04:31:42;;;;;;;6.45;5.85;;;15.90;99.90;;;;;;4971027;28;20029;-77
2021/08/10 04:34:08;;;;;;;6.32;5.72;;;16.00;99.90;;;;;;4970727;28;20023;-77
2021/08/10 04:36:34;;;;;;;6.65;6.05;;;16.00;99.90;;;;;;4968084;28;20125;-76
2021/08/10 04:39:02;;;;;;;6.88;6.00;;;16.00;99.90;;;;;;4970709;28;20556;-77
2021/08/10 04:41:28;;;;;;;7.20;6.07;;;16.10;99.90;;;;;;4971159;28;20034;-76
2021/08/10 04:43:54;;;;;;;6.57;5.82;;;16.10;99.90;;;;;;4969160;28;20039;-77
2021/08/10 04:46:22;;;;;;;7.78;5.93;;;16.10;99.90;;;;;;4969092;28;20038;-77
2021/08/10 04:48:48;;;;;;;7.47;6.63;;;16.20;99.90;;;;;;4970011;28;20027;-76
2021/08/10 04:51:14;;;;;;;11.20;7.07;;;16.20;99.90;;;;;;4971007;28;20019;-77
2021/08/10 04:53:40;;;;;;;9.13;7.15;;;16.30;99.90;;;;;;4968248;28;20104;-77
2021/08/10 04:56:06;;;;;;;8.73;6.57;;;16.30;99.90;;;;;;4968589;28;20034;-78
2021/08/10 04:58:32;;;;;;;7.50;6.32;;;16.40;99.90;;;;;;4970912;28;20048;-76
2021/08/10 05:00:58;;;;;;;7.82;5.63;;;16.50;99.90;;;;;;4968185;28;20038;-77
2021/08/10 05:03:24;;;;;;;7.35;6.53;;;16.60;99.90;;;;;;4970594;28;20235;-77
2021/08/10 05:05:49;;;;;;;6.47;5.70;;;16.70;99.90;;;;;;4969722;28;20160;-77
2021/08/10 05:08:16;;;;;;;7.75;6.20;;;16.70;99.90;;;;;;4967274;28;20088;-76
2021/08/10 05:10:42;;;;;;;8.43;5.30;;;16.80;99.90;;;;;;5052951;28;20027;-76
2021/08/10 05:13:08;;;;;;;7.20;6.50;;;16.80;99.90;;;;;;4960704;28;20031;-77
2021/08/10 05:15:35;;;;;;;10.13;6.82;;;16.90;99.90;;;;;;4975696;28;20031;-76
2021/08/10 05:18:00;;;;;;;6.70;6.03;;;17.00;99.90;;;;;;4969428;28;20100;-77
2021/08/10 05:20:26;;;;;;;7.50;5.07;;;17.10;99.90;;;;;;4969191;28;20077;-77
2021/08/10 05:22:52;;;;;;;5.10;4.60;;;17.20;99.90;;;;;;4968607;28;20031;-77
2021/08/10 05:25:17;;;;;;;10.52;5.55;;;17.30;99.90;;;;;;4968438;28;20023;-77
2021/08/10 05:27:43;;;;;;;6.35;4.85;;;17.40;99.90;;;;;;4968221;28;20046;-77
2021/08/10 05:30:09;;;;;;;7.28;4.72;;;17.60;99.90;;;;;;4968658;28;20034;-77
2021/08/10 05:32:35;;;;;;;5.53;4.07;;;17.70;99.90;;;;;;4968201;28;20511;-77
2021/08/10 05:35:00;;;;;;;5.78;5.03;;;17.80;99.90;;;;;;4970416;28;20027;-75
2021/08/10 05:37:26;;;;;;;4.40;4.05;;;17.90;99.90;;;;;;4969878;28;20031;-75
2021/08/10 05:39:52;;;;;;;4.30;3.90;;;18.10;99.90;;;;;;4970999;28;20070;-75
2021/08/10 05:42:17;;;;;;;7.93;4.60;;;18.10;99.90;;;;;;4969178;28;20407;-75
2021/08/10 05:44:43;;;;;;;6.25;4.45;;;18.10;99.90;;;;;;5056635;28;20027;-75
2021/08/10 05:47:08;;;;;;;8.10;5.05;;;18.20;99.90;;;;;;4987564;28;20038;-75
2021/08/10 05:49:34;;;;;;;6.18;4.55;;;18.30;99.90;;;;;;4972198;28;20065;-77
2021/08/10 05:52:00;;;;;;;5.97;5.35;;;18.50;99.90;;;;;;4972406;28;20051;-77
2021/08/10 05:54:25;;;;;;;4.32;3.92;;;18.70;99.90;;;;;;4972191;28;20031;-76
2021/08/10 05:56:51;;;;;;;7.05;4.10;;;18.80;99.90;;;;;;4970283;28;20019;-76
2021/08/10 05:59:17;;;;;;;4.28;3.88;;;18.90;99.90;;;;;;4970265;28;20053;-77
2021/08/10 06:01:42;;;;;;;4.30;3.30;;;18.90;99.90;;;;;;4970378;28;20061;-77
2021/08/10 06:04:08;;;;;;;4.80;3.85;;;19.10;99.90;;;;;;4953740;28;20077;-77
2021/08/10 06:06:34;;;;;;;5.60;3.65;;;19.20;99.90;;;;;;4952007;28;20058;-76
2021/08/10 06:09:06;;;;;;;6.35;3.90;;;19.30;99.90;;;;;;4952207;28;20472;-77
2021/08/10 06:11:33;;;;;;;6.45;3.65;;;19.50;99.90;;;;;;4953894;28;20476;-77
2021/08/10 06:13:59;;;;;;;3.60;3.30;;;19.50;99.90;;;;;;4969009;28;20023;-77
2021/08/10 06:16:25;;;;;;;5.63;3.47;;;19.60;99.90;;;;;;4969269;28;20046;-77
2021/08/10 06:18:52;;;;;;;4.63;3.95;;;19.70;99.90;;;;;;4972427;28;20019;-77
2021/08/10 06:21:17;;;;;;;6.15;3.50;;;19.80;99.90;;;;;;4971976;28;20027;-76
2021/08/10 06:23:43;;;;;;;5.10;3.53;;;20.00;99.90;;;;;;4956379;28;20038;-77
2021/08/10 06:26:09;;;;;;;2.88;2.65;;;20.20;99.90;;;;;;4954006;28;20019;-77
2021/08/10 06:28:34;;;;;;;2.85;2.65;;;20.40;99.90;;;;;;4953819;28;20123;-77
2021/08/10 06:31:02;;;;;;;2.75;2.28;;;20.30;99.90;;;;;;4952763;28;20392;-76
2021/08/10 06:33:28;;;;;;;2.90;2.58;;;20.40;98.90;;;;;;4953723;28;20039;-76
2021/08/10 06:35:54;;;;;;;6.50;3.33;;;20.40;99.90;;;;;;4969752;28;20038;-77
2021/08/10 06:38:19;;;;;;;3.90;3.05;;;20.50;99.90;;;;;;4971759;28;20038;-76
2021/08/10 06:40:45;;;;;;;3.22;2.90;;;20.70;99.90;;;;;;4973153;28;20557;-77
2021/08/10 06:43:11;;;;;;;3.80;3.13;;;20.70;99.30;;;;;;4987806;28;20069;-77
2021/08/10 06:45:37;;;;;;;2.88;2.45;;;20.90;99.90;;;;;;4971325;28;20019;-77
2021/08/10 06:48:03;;;;;;;2.95;2.65;;;21.10;98.00;;;;;;4972608;28;20377;-77
2021/08/10 06:50:29;;;;;;;3.90;2.75;;;21.20;97.60;;;;;;4970344;28;20060;-77
2021/08/10 06:52:55;;;;;;;2.88;2.55;;;21.40;96.30;;;;;;4952297;28;20023;-77
2021/08/10 06:55:20;;;;;;;6.10;3.25;;;21.60;98.60;;;;;;4953170;28;20397;-77
2021/08/10 06:57:46;;;;;;;5.70;3.33;;;21.70;97.70;;;;;;4953392;28;20027;-77
2021/08/10 07:00:12;;;;;;;4.95;3.80;;;21.90;98.30;;;;;;4960214;28;20026;-77
2021/08/10 07:02:38;;;;;;;3.38;3.15;;;21.90;96.20;;;;;;4971252;28;20512;-77
2021/08/10 07:05:04;;;;;;;5.03;3.10;;;22.00;98.50;;;;;;4972540;28;20050;-78
2021/08/10 07:07:29;;;;;;;3.72;3.28;;;22.10;99.90;;;;;;4971602;28;20035;-77
2021/08/10 07:09:55;;;;;;;3.33;2.80;;;22.30;98.50;;;;;;4972786;28;20047;-76
2021/08/10 07:12:21;;;;;;;4.22;3.17;;;22.50;98.30;;;;;;4972250;28;20446;-77
2021/08/10 07:14:47;;;;;;;4.70;2.58;;;22.60;96.00;;;;;;4971341;28;20492;-77
2021/08/10 07:17:12;;;;;;;3.53;2.92;;;22.60;94.00;;;;;;4971558;28;20031;-77
2021/08/10 07:19:38;;;;;;;5.00;3.28;;;22.70;96.70;;;;;;4986687;28;20023;-77
2021/08/10 07:22:04;;;;;;;7.70;3.60;;;22.80;95.80;;;;;;4967474;28;20019;-76
2021/08/10 07:24:29;;;;;;;4.20;3.30;;;22.90;94.80;;;;;;4986927;28;20090;-77
2021/08/10 07:26:55;;;;;;;5.00;3.25;;;22.90;91.90;;;;;;4971863;28;20038;-77
2021/08/10 07:29:21;;;;;;;4.72;3.70;;;23.10;94.20;;;;;;4971837;28;20029;-77
2021/08/10 07:31:47;;;;;;;4.43;3.40;;;23.20;93.20;;;;;;4968790;28;20098;-77
2021/08/10 07:34:13;;;;;;;4.07;2.90;;;23.30;88.40;;;;;;4978326;28;20019;-77
2021/08/10 07:36:38;;;;;;;4.60;3.45;;;23.40;88.30;;;;;;4983898;28;20080;-77
2021/08/10 07:39:05;;;;;;;3.53;2.83;;;23.60;88.50;;;;;;4986689;28;20019;-77
2021/08/10 07:41:30;;;;;;;4.93;3.35;;;23.70;88.60;;;;;;4971661;28;20023;-78
2021/08/10 07:43:56;;;;;;;3.38;3.08;;;23.70;88.50;;;;;;4971708;28;20502;-77
2021/08/10 07:46:22;;;;;;;4.82;3.17;;;23.90;91.40;;;;;;4971580;28;20093;-78
2021/08/10 07:48:48;;;;;;;3.88;3.40;;;24.00;88.60;;;;;;4967257;28;20053;-77
2021/08/10 07:51:13;;;;;;;3.85;3.03;;;24.10;86.50;;;;;;4971473;28;20023;-78
2021/08/10 07:53:39;;;;;;;6.45;3.47;;;24.20;85.50;;;;;;4971566;28;20029;-77
2021/08/10 07:56:05;;;;;;;4.15;3.13;;;24.30;86.40;;;;;;4985826;28;20503;-77
2021/08/10 07:58:30;;;;;;;3.75;3.17;;;24.50;85.40;;;;;;4971366;28;20046;-77
2021/08/10 08:00:56;;;;;;;6.75;3.65;;;24.60;84.80;;;;;;4984552;28;20059;-77
2021/08/10 08:03:23;;;;;;;2.90;2.63;;;24.70;82.80;;;;;;4968238;28;20035;-77
2021/08/10 08:05:48;;;;;;;4.53;3.42;;;24.70;83.60;;;;;;4968940;28;20022;-77
2021/08/10 08:08:14;;;;;;;5.15;3.20;;;24.70;80.70;;;;;;4967899;28;20034;-77
2021/08/10 08:10:40;;;;;;;3.58;3.22;;;24.70;81.80;;;;;;4969106;28;20119;-77
2021/08/10 08:13:06;;;;;;;6.57;3.65;;;24.80;85.20;;;;;;4969009;28;20077;-77
2021/08/10 08:15:33;;;;;;;4.13;3.35;;;24.90;81.80;;;;;;4967142;28;20077;-77
2021/08/10 08:17:58;;;;;;;4.25;3.42;;;25.00;81.40;;;;;;4985277;28;20740;-78
2021/08/10 08:20:24;;;;;;;3.30;3.00;;;25.10;79.90;;;;;;4967205;28;20026;-78
2021/08/10 08:22:50;;;;;;;3.78;3.03;;;25.20;79.20;;;;;;4984988;28;20113;-77
2021/08/10 08:25:16;;;;;;;3.50;3.17;;;25.30;79.20;;;;;;4984011;28;20433;-77
2021/08/10 08:27:41;;;;;;;4.35;3.20;;;25.40;77.00;;;;;;4969590;28;20488;-77
2021/08/10 08:30:08;;;;;;;2.70;2.50;;;25.50;75.60;;;;;;4971627;28;20473;-77
2021/08/10 08:32:34;;;;;;;4.00;3.25;;;25.50;74.90;;;;;;4965619;28;20038;-77
2021/08/10 08:34:59;;;;;;;2.92;2.58;;;25.60;76.10;;;;;;4952192;28;20031;-78
2021/08/10 08:37:25;;;;;;;3.03;2.47;;;25.70;73.50;;;;;;4963389;28;20473;-77
2021/08/10 08:39:51;;;;;;;2.55;2.35;;;25.70;70.70;;;;;;4971112;28;20446;-77
2021/08/10 08:42:17;;;;;;;3.92;2.50;;;25.60;64.20;;;;;;4971061;28;20140;-77
2021/08/10 08:44:43;;;;;;;3.78;2.50;;;25.70;67.40;;;;;;4962573;28;20019;-77
2021/08/10 08:47:10;;;;;;;3.10;2.80;;;25.80;69.00;;;;;;4963958;28;20053;-77
2021/08/10 08:49:37;;;;;;;3.45;2.50;;;25.80;72.40;;;;;;4970002;28;20503;-77
2021/08/10 08:52:12;;;;;;;2.75;2.47;;;25.70;71.10;;;;;;4971189;28;20074;-77
2021/08/10 08:54:38;;;;;;;3.80;3.35;;;25.70;72.10;;;;;;4986221;28;20026;-77
2021/08/10 08:57:04;;;;;;;2.97;2.45;;;25.70;72.20;;;;;;4970698;28;20019;-77
2021/08/10 08:59:31;;;;;;;2.63;2.42;;;25.80;71.40;;;;;;4971150;28;20027;-78
2021/08/10 09:01:56;;;;;;;2.97;2.22;;;25.90;67.20;;;;;;4971101;28;20400;-77
2021/08/10 09:04:22;;;;;;;2.92;2.63;;;26.00;68.50;;;;;;4969357;28;20031;-77
2021/08/10 09:06:49;;;;;;;2.70;2.45;;;26.00;72.30;;;;;;4969740;28;20729;-77
2021/08/10 09:09:30;;;;;;;3.42;2.45;;;25.90;68.00;;;;;;4970200;28;20100;-77
2021/08/10 09:12:01;;;;;;;2.42;2.22;;;25.90;66.60;;;;;;4970966;28;20094;-77
2021/08/10 09:14:45;;;;;;;3.13;2.60;;;25.70;64.90;;;;;;4970481;28;20019;-77
2021/08/10 09:17:20;;;;;;;2.75;2.58;;;25.40;65.30;;;;;;4969638;28;20031;-77
2021/08/10 09:19:52;;;;;;;2.88;2.67;;;25.20;67.10;;;;;;4987456;28;20037;-77
2021/08/10 09:22:22;;;;;;;2.15;2.05;;;25.40;68.00;;;;;;4973924;28;20102;-77
2021/08/10 09:25:00;;;;;;;2.58;2.35;;;25.70;72.00;;;;;;4974303;28;20037;-77
2021/08/10 09:27:44;;;;;;;2.80;2.50;;;25.70;66.20;;;;;;4972712;28;20199;-77
2021/08/10 09:30:09;;;;;;;2.50;2.30;;;25.90;69.50;;;;;;4972460;28;20019;-77
2021/08/10 09:32:57;;;;;;;2.75;2.55;;;26.10;64.40;;;;;;4974273;28;20031;-77
2021/08/10 09:35:28;;;;;;;2.35;2.15;;;26.20;66.80;;;;;;4974016;28;20018;-77
2021/08/10 09:38:13;;;;;;;3.83;2.42;;;26.10;62.70;;;;;;4973744;28;20023;-77
2021/08/10 09:40:43;;;;;;;2.50;2.30;;;26.30;62.60;;;;;;4974151;28;20035;-77
2021/08/10 09:43:25;;;;;;;2.90;2.70;;;26.40;61.60;;;;;;4973975;28;20027;-77
2021/08/10 09:46:15;;;;;;;2.38;2.15;;;26.50;62.20;;;;;;4972537;28;20057;-78
2021/08/10 09:49:02;;;;;;;2.45;1.73;;;26.70;59.70;;;;;;4973872;28;20043;-77
2021/08/10 09:51:32;;;;;;;4.05;2.58;;;26.90;58.60;;;;;;4972069;28;20035;-77
2021/08/10 09:53:59;;;;;;;4.53;2.28;;;27.20;58.10;;;;;;4973881;28;20034;-77
2021/08/10 09:56:59;;;;;;;2.20;1.95;;;27.30;57.20;;;;;;4972775;28;20362;-78
2021/08/10 09:59:40;;;;;;;2.45;2.13;;;27.30;56.10;;;;;;4973450;28;20080;-77
2021/08/10 10:02:21;;;;;;;2.22;2.03;;;27.30;57.40;;;;;;4954390;28;20032;-77
2021/08/10 10:04:57;;;;;;;2.25;2.00;;;27.10;56.50;;;;;;4953575;28;20015;-77
2021/08/10 10:07:24;;;;;;;2.80;2.15;;;27.10;57.40;;;;;;4966583;28;20039;-77
2021/08/10 10:09:50;;;;;;;1.85;1.75;;;27.00;57.00;;;;;;4973331;28;20027;-78
2021/08/10 10:12:19;;;;;;;2.60;2.40;;;26.80;54.60;;;;;;4973423;28;20023;-77
2021/08/10 10:14:46;;;;;;;3.22;2.45;;;26.80;54.30;;;;;;4971444;28;20033;-77
2021/08/10 10:17:13;;;;;;;3.42;2.33;;;26.80;56.70;;;;;;4973324;28;20088;-77
2021/08/10 10:19:42;;;;;;;3.17;2.40;;;26.80;59.70;;;;;;4972211;28;20480;-78
2021/08/10 10:22:15;;;;;;;2.60;2.08;;;26.90;57.40;;;;;;4972380;28;20025;-77
2021/08/10 10:24:49;;;;;;;2.17;2.08;;;27.10;57.70;;;;;;4985526;28;20370;-77
2021/08/10 10:27:16;;;;;;;1.98;1.83;;;27.30;57.60;;;;;;4986436;28;20507;-77
2021/08/10 10:29:42;;;;;;;4.03;2.03;;;27.50;58.10;;;;;;4971315;28;20110;-77
2021/08/10 10:32:07;;;;;;;4.40;2.50;;;27.50;56.80;;;;;;4984063;28;20026;-77
2021/08/10 10:34:36;;;;;;;2.58;2.38;;;27.40;55.00;;;;;;4986771;28;20027;-77
2021/08/10 10:37:03;;;;;;;3.17;2.03;;;27.10;57.90;;;;;;4971226;28;20023;-77
2021/08/10 10:39:32;;;;;;;2.70;2.47;;;26.80;56.00;;;;;;4986480;28;20124;-77
2021/08/10 10:42:01;;;;;;;2.60;2.40;;;26.80;56.80;;;;;;4969446;28;20106;-77
2021/08/10 10:44:40;;;;;;;3.70;2.50;;;27.00;60.80;;;;;;4970855;28;20019;-77
2021/08/10 10:47:24;;;;;;;2.85;2.28;;;27.30;58.70;;;;;;4970655;28;20400;-77
2021/08/10 10:49:55;;;;;;;2.05;1.85;;;27.70;58.90;;;;;;4985908;28;20319;-77
2021/08/10 10:52:21;;;;;;;2.33;2.00;;;27.70;52.60;;;;;;4983833;28;20614;-78
2021/08/10 10:54:47;;;;;;;2.03;1.92;;;27.90;50.00;;;;;;4984918;28;20435;-78
2021/08/10 10:57:40;;;;;;;1.90;1.80;;;28.10;50.50;;;;;;4964891;28;20023;-77
2021/08/10 11:00:12;;;;;;;2.30;1.60;;;28.20;51.20;;;;;;4962503;28;20564;-77
2021/08/10 11:02:39;;;;;;;5.22;3.00;;;28.30;52.50;;;;;;4964326;28;20026;-77
2021/08/10 11:05:08;;;;;;;4.43;2.25;;;28.30;51.70;;;;;;4966474;28;20428;-77
2021/08/10 11:07:36;;;;;;;3.90;2.20;;;28.20;52.10;;;;;;4981130;28;20043;-77
2021/08/10 11:10:21;;;;;;;3.15;2.25;;;28.10;52.60;;;;;;4968919;28;20031;-77
2021/08/10 11:12:47;;;;;;;2.83;2.00;;;28.10;51.60;;;;;;4969712;28;20531;-77
2021/08/10 11:15:17;;;;;;;3.45;2.42;;;28.00;51.90;;;;;;4971887;28;20354;-78
2021/08/10 11:18:08;;;;;;;3.25;2.15;;;27.80;52.70;;;;;;4970854;28;20023;-77
2021/08/10 11:20:39;;;;;;;2.00;1.90;;;27.60;52.10;;;;;;4980426;28;20499;-78
2021/08/10 11:23:18;;;;;;;3.40;3.10;;;27.50;57.00;;;;;;4972444;28;20106;-77
2021/08/10 11:25:45;;;;;;;3.80;2.70;;;27.30;57.20;;;;;;4987439;28;20023;-77
2021/08/10 11:28:33;;;;;;;3.03;2.30;;;27.10;58.60;;;;;;4969875;28;20468;-77
2021/08/10 11:31:07;;;;;;;4.90;2.72;;;27.00;59.60;;;;;;4966405;28;20430;-78
2021/08/10 11:33:33;;;;;;;2.70;2.50;;;27.00;60.00;;;;;;4968977;28;20026;-77
2021/08/10 11:36:11;;;;;;;3.00;2.70;;;26.90;56.30;;;;;;4983212;28;20023;-77
2021/08/10 11:38:51;;;;;;;6.60;2.70;;;27.20;55.40;;;;;;4970854;28;20062;-77
2021/08/10 11:41:19;;;;;;;3.38;2.22;;;27.30;53.80;;;;;;4983096;28;20038;-77
2021/08/10 11:43:54;;;;;;;3.75;2.50;;;27.20;52.60;;;;;;4970706;28;20030;-77
2021/08/10 11:46:28;;;;;;;2.58;2.38;;;27.10;52.70;;;;;;4969532;28;20477;-77
2021/08/10 11:48:59;;;;;;;3.10;2.55;;;27.20;53.40;;;;;;4969994;28;20031;-77
2021/08/10 11:51:30;;;;;;;2.80;2.53;;;27.10;55.30;;;;;;4969351;28;20492;-77
2021/08/10 11:53:59;;;;;;;4.85;3.05;;;27.10;55.80;;;;;;4986576;28;20430;-77
2021/08/10 11:56:30;;;;;;;4.68;2.50;;;27.20;59.40;;;;;;4969287;28;20011;-77
2021/08/10 11:59:00;;;;;;;3.55;2.70;;;27.50;57.70;;;;;;4971515;28;20109;-77
2021/08/10 12:01:28;;;;;;;3.58;2.65;;;27.60;55.70;;;;;;4968512;28;20026;-77
2021/08/10 12:04:06;;;;;;;3.78;2.58;;;27.80;52.90;;;;;;4976437;28;20561;-77
2021/08/10 12:06:32;;;;;;;3.53;2.60;;;27.90;53.30;;;;;;4968826;28;20026;-77
2021/08/10 12:09:04;;;;;;;4.07;2.97;;;27.90;55.30;;;;;;4986646;28;20152;-78
2021/08/10 12:11:31;;;;;;;3.08;2.50;;;27.70;54.10;;;;;;4970557;28;20573;-77
2021/08/10 12:14:13;;;;;;;5.13;3.13;;;27.80;56.00;;;;;;4970133;28;20031;-77
2021/08/10 12:16:58;;;;;;;4.20;3.45;;;28.00;57.70;;;;;;4970477;28;20489;-77
2021/08/10 12:19:33;;;;;;;3.90;2.72;;;28.10;57.60;;;;;;4970139;28;20028;-78
2021/08/10 12:21:59;;;;;;;4.72;2.88;;;28.00;56.60;;;;;;4971712;28;21797;-77
2021/08/10 12:24:26;;;;;;;4.95;3.45;;;27.90;53.70;;;;;;4970308;28;20011;-77
2021/08/10 12:26:53;;;;;;;5.95;3.20;;;27.90;55.40;;;;;;4969196;28;20041;-77
2021/08/10 12:29:19;;;;;;;4.07;2.50;;;27.80;58.50;;;;;;4969874;28;20035;-77
2021/08/10 12:31:45;;;;;;;4.35;2.78;;;27.70;52.80;;;;;;4968421;28;20034;-77
2021/08/10 12:34:11;;;;;;;3.15;2.47;;;27.70;51.40;;;;;;4950810;28;20059;-77
2021/08/10 12:36:52;;;;;;;3.42;2.50;;;27.80;50.10;;;;;;4951976;28;20065;-77
2021/08/10 12:39:18;;;;;;;3.60;2.55;;;27.90;51.80;;;;;;4952225;28;20035;-77
2021/08/10 12:41:45;;;;;;;3.22;2.92;;;27.90;48.30;;;;;;4966908;28;20055;-77
2021/08/10 12:44:11;;;;;;;3.30;2.90;;;28.00;50.10;;;;;;4966901;28;20023;-77
2021/08/10 12:46:37;;;;;;;4.18;3.08;;;28.10;50.20;;;;;;4969902;28;20041;-77
2021/08/10 12:49:15;;;;;;;5.38;3.47;;;28.20;51.20;;;;;;4971098;28;20081;-77
2021/08/10 12:51:57;;;;;;;3.90;3.47;;;28.10;52.80;;;;;;4972077;28;20492;-77
2021/08/10 12:54:24;;;;;;;3.78;3.42;;;28.00;53.80;;;;;;4972673;28;20023;-77
2021/08/10 12:56:50;;;;;;;4.13;3.10;;;28.20;54.80;;;;;;4973205;28;20023;-77